Time;durP1;ratioP1;P1;durP2;ratioP2;P2;SDS_P1;SDS_P2;PMS_P1;PMS_P2;Temp;Humidity;BMP_temperature;BMP_pressure;BME280_temperature;BME280_humidity;BME280_pressure;Samples;Min_cycle;Max_cycle;Signal;HPM_P1;HPM_P2
2023/07/04 00:03:25;;;;;;;4.28;2.28;;;;;;;17.43;44.34;99555.06;10374231;28;20108;-59
2023/07/04 00:08:29;;;;;;;4.70;2.15;;;;;;;17.35;44.50;99547.84;10382556;28;20033;-59
2023/07/04 00:13:33;;;;;;;5.25;2.20;;;;;;;17.27;44.52;99552.16;10381460;28;20192;-59
2023/07/04 00:18:38;;;;;;;5.00;2.20;;;;;;;17.24;44.86;99552.47;10397253;28;20151;-59
2023/07/04 00:23:45;;;;;;;5.40;2.00;;;;;;;17.17;44.80;99552.19;10380992;28;20140;-59
2023/07/04 00:28:48;;;;;;;5.18;2.00;;;;;;;17.13;45.10;99545.53;10383193;28;20045;-59
2023/07/04 00:33:50;;;;;;;7.32;2.10;;;;;;;17.11;45.09;99542.19;10380606;28;20050;-59
2023/07/04 00:38:55;;;;;;;5.55;2.00;;;;;;;17.01;45.05;99546.66;10382162;28;20080;-59
2023/07/04 00:44:19;;;;;;;6.45;2.10;;;;;;;16.93;45.18;99559.75;10381964;28;20076;-59
2023/07/04 00:49:41;;;;;;;7.18;2.38;;;;;;;16.86;45.87;99554.19;10382749;28;20042;-59
2023/07/04 00:54:52;;;;;;;5.28;2.10;;;;;;;16.88;45.42;99546.09;10389184;28;20557;-59
2023/07/04 00:59:58;;;;;;;6.80;1.80;;;;;;;16.81;45.31;99555.59;10388201;28;20057;-59
2023/07/04 01:05:05;;;;;;;4.97;2.20;;;;;;;16.75;45.44;99556.13;10386379;28;20444;-59
2023/07/04 01:10:17;;;;;;;4.70;2.08;;;;;;;16.72;45.84;99561.69;10383583;28;20045;-59
2023/07/04 01:15:19;;;;;;;5.07;2.13;;;;;;;16.64;45.59;99558.91;10386231;28;20068;-59
2023/07/04 01:20:21;;;;;;;5.35;1.85;;;;;;;16.54;45.93;99568.63;10385790;28;20076;-59
2023/07/04 01:25:32;;;;;;;6.95;1.95;;;;;;;16.51;46.09;99572.38;10379597;28;20060;-59
2023/07/04 01:30:38;;;;;;;5.20;2.25;;;;;;;16.45;46.28;99572.09;10385953;28;20045;-58
2023/07/04 01:35:41;;;;;;;6.53;2.00;;;;;;;16.36;46.08;99575.53;10384114;28;20056;-59
2023/07/04 01:40:43;;;;;;;4.88;1.98;;;;;;;16.31;46.55;99575.09;10384931;28;20906;-59
2023/07/04 01:45:45;;;;;;;5.95;2.13;;;;;;;16.27;46.52;99582.44;10382876;28;20091;-59
2023/07/04 01:50:48;;;;;;;4.88;2.00;;;;;;;16.20;46.65;99590.06;10358549;28;20045;-59
2023/07/04 01:55:50;;;;;;;5.05;1.98;;;;;;;16.11;46.73;99597.97;10382906;28;20139;-58
2023/07/04 02:00:52;;;;;;;5.22;2.13;;;;;;;16.01;47.28;99591.81;10400607;28;20092;-59
2023/07/04 02:05:56;;;;;;;5.05;2.35;;;;;;;15.93;47.63;99605.69;10407029;28;20057;-59
2023/07/04 02:10:58;;;;;;;5.85;2.15;;;;;;;15.84;47.50;99595.09;10391505;28;20979;-59
2023/07/04 02:16:00;;;;;;;4.57;2.33;;;;;;;15.70;47.78;99606.84;10389761;28;20164;-59
2023/07/04 02:21:03;;;;;;;4.97;2.00;;;;;;;15.61;48.10;99605.00;10392114;28;20484;-59
2023/07/04 02:26:05;;;;;;;4.55;1.70;;;;;;;15.48;48.34;99606.97;10375746;28;20047;-59
2023/07/04 02:31:08;;;;;;;5.05;2.00;;;;;;;15.33;48.86;99611.72;10390113;28;20048;-58
2023/07/04 02:36:11;;;;;;;5.55;2.03;;;;;;;15.25;49.05;99611.53;10388623;28;20137;-59
2023/07/04 02:41:14;;;;;;;5.32;2.10;;;;;;;15.16;49.44;99614.94;10389864;28;20041;-59
2023/07/04 02:46:16;;;;;;;5.35;2.10;;;;;;;15.10;49.45;99614.63;10372894;28;20064;-59
2023/07/04 02:51:20;;;;;;;5.15;2.15;;;;;;;14.99;49.65;99612.88;10364336;28;20567;-58
2023/07/04 02:56:23;;;;;;;6.13;2.28;;;;;;;14.85;49.91;99609.72;10388256;28;20132;-58
2023/07/04 03:01:25;;;;;;;6.10;2.38;;;;;;;14.73;50.50;99616.84;10370731;28;20050;-58
2023/07/04 03:06:28;;;;;;;7.45;2.05;;;;;;;14.66;50.40;99614.81;10382352;28;20049;-59
2023/07/04 03:11:31;;;;;;;5.30;1.80;;;;;;;14.59;50.81;99609.22;10364822;28;20140;-58
2023/07/04 03:16:34;;;;;;;5.97;1.88;;;;;;;14.65;50.40;99610.50;10381875;28;20049;-59
2023/07/04 03:21:38;;;;;;;4.43;2.00;;;;;;;14.79;50.15;99620.75;10380994;28;20050;-58
2023/07/04 03:26:40;;;;;;;4.68;1.85;;;;;;;14.77;50.41;99618.25;10366035;28;20124;-59
2023/07/04 03:31:44;;;;;;;6.18;1.92;;;;;;;14.88;50.21;99626.09;10380731;28;20049;-58
2023/07/04 03:36:46;;;;;;;4.70;2.08;;;;;;;14.95;49.98;99626.41;10357047;28;20620;-58
2023/07/04 03:41:48;;;;;;;9.05;2.40;;;;;;;15.02;50.05;99628.41;10365855;28;20073;-58
2023/07/04 03:46:50;;;;;;;5.45;2.40;;;;;;;15.07;50.02;99623.63;10378676;28;20049;-58
2023/07/04 03:51:53;;;;;;;4.68;1.80;;;;;;;15.13;49.77;99628.38;10379540;28;20064;-59
2023/07/04 03:56:55;;;;;;;3.75;1.67;;;;;;;15.18;49.88;99625.38;10383887;28;20076;-58
2023/07/04 04:01:57;;;;;;;4.40;1.70;;;;;;;15.24;49.68;99638.03;10397546;28;20512;-58
2023/07/04 04:06:59;;;;;;;4.70;1.92;;;;;;;15.27;49.54;99632.47;10381772;28;20049;-58
2023/07/04 04:12:02;;;;;;;5.95;1.60;;;;;;;15.52;49.37;99647.94;10367840;28;20648;-58
2023/07/04 04:17:05;;;;;;;4.47;1.90;;;;;;;16.46;48.58;99648.50;10381029;28;20100;-58
2023/07/04 04:22:07;;;;;;;5.53;2.03;;;;;;;17.89;45.95;99633.56;10381248;28;20038;-58
2023/07/04 04:27:12;;;;;;;4.25;1.83;;;;;;;19.31;43.98;99641.59;10389875;28;20057;-59
2023/07/04 04:32:15;;;;;;;6.22;1.95;;;;;;;20.28;42.31;99643.84;10389775;28;20073;-58
2023/07/04 04:37:17;;;;;;;4.18;1.70;;;;;;;21.35;40.33;99644.78;10387489;28;20148;-59
2023/07/04 04:42:23;;;;;;;3.85;1.60;;;;;;;22.07;38.89;99643.81;10388039;28;20053;-59
2023/07/04 04:47:25;;;;;;;4.53;1.80;;;;;;;23.01;37.82;99647.19;10388484;28;20112;-58
2023/07/04 04:52:29;;;;;;;3.67;1.50;;;;;;;23.75;36.51;99641.06;10388038;28;20512;-59
2023/07/04 04:57:31;;;;;;;3.80;1.65;;;;;;;24.44;35.38;99644.28;10388977;28;20060;-59
2023/07/04 05:02:33;;;;;;;3.90;1.30;;;;;;;25.29;34.26;99648.72;10387589;28;20042;-60
2023/07/04 05:07:35;;;;;;;2.72;1.50;;;;;;;25.94;33.06;99650.28;10370333;28;20056;-59
2023/07/04 05:12:39;;;;;;;4.60;1.65;;;;;;;26.17;32.44;99642.78;10383871;28;20088;-59
2023/07/04 05:17:41;;;;;;;4.47;1.80;;;;;;;26.30;31.13;99649.03;10384310;28;20053;-59
2023/07/04 05:22:45;;;;;;;4.50;1.67;;;;;;;26.53;31.28;99643.34;10384205;28;20049;-59
2023/07/04 05:27:47;;;;;;;3.55;1.55;;;;;;;26.63;30.99;99649.19;10384623;28;20131;-59
2023/07/04 05:32:49;;;;;;;2.97;1.55;;;;;;;25.96;30.29;99662.47;10384102;28;20053;-59
2023/07/04 05:37:51;;;;;;;10.55;1.63;;;;;;;23.89;32.94;99672.28;10382385;28;20068;-60
2023/07/04 05:42:53;;;;;;;3.67;1.85;;;;;;;22.04;35.29;99669.97;10385437;28;20069;-60
2023/07/04 05:47:55;;;;;;;2.55;1.30;;;;;;;21.48;36.19;99666.38;10384721;28;20498;-60
2023/07/04 05:52:57;;;;;;;3.35;1.27;;;;;;;21.15;36.61;99672.66;10384227;28;20047;-59
2023/07/04 05:57:59;;;;;;;2.67;1.40;;;;;;;20.70;37.33;99667.75;10386160;28;20057;-59
2023/07/04 06:03:03;;;;;;;4.03;1.33;;;;;;;20.65;37.56;99688.69;10385462;28;20041;-59
2023/07/04 06:08:06;;;;;;;4.20;1.50;;;;;;;20.51;37.79;99693.75;10386213;28;20048;-60
2023/07/04 06:13:08;;;;;;;2.47;1.30;;;;;;;20.46;38.26;99699.53;10385089;28;20046;-59
2023/07/04 06:18:10;;;;;;;4.22;2.28;;;;;;;20.40;38.28;99694.84;10384718;28;20912;-59
2023/07/04 06:23:13;;;;;;;6.85;1.60;;;;;;;20.20;38.62;99696.09;10386662;28;20048;-59
2023/07/04 06:28:15;;;;;;;3.95;1.40;;;;;;;20.05;38.83;99705.66;10384000;28;20128;-59
2023/07/04 06:33:17;;;;;;;3.58;1.30;;;;;;;20.26;38.54;99700.78;10385836;28;20045;-59
2023/07/04 06:38:21;;;;;;;3.08;1.40;;;;;;;20.42;38.51;99706.16;10383723;28;20051;-58
2023/07/04 06:43:25;;;;;;;3.13;1.17;;;;;;;20.74;37.86;99714.28;10385516;28;20037;-59
2023/07/04 06:48:29;;;;;;;2.72;1.23;;;;;;;21.31;37.34;99709.09;10381452;28;20056;-59
2023/07/04 06:53:32;;;;;;;3.22;1.20;;;;;;;21.65;36.78;99712.44;10385439;28;20557;-59
2023/07/04 06:58:36;;;;;;;2.70;1.40;;;;;;;22.22;35.96;99707.88;10383860;28;20121;-59
2023/07/04 07:03:38;;;;;;;3.35;1.25;;;;;;;22.74;34.96;99713.53;10383946;28;20098;-59
2023/07/04 07:08:41;;;;;;;2.88;1.00;;;;;;;23.54;34.94;99713.00;10383412;28;20123;-60
2023/07/04 07:13:44;;;;;;;4.13;1.10;;;;;;;24.18;33.75;99723.09;10379488;28;20053;-60
2023/07/04 07:18:47;;;;;;;5.03;1.08;;;;;;;24.75;33.32;99722.44;10382934;28;20115;-60
2023/07/04 07:23:50;;;;;;;2.92;1.52;;;;;;;25.18;32.38;99718.84;10365936;28;20139;-60
2023/07/04 07:28:58;;;;;;;2.58;0.93;;;;;;;25.90;31.64;99706.09;10383412;28;20088;-60
2023/07/04 07:34:01;;;;;;;4.57;1.17;;;;;;;26.04;30.34;99707.88;10366263;28;20056;-60
2023/07/04 07:39:06;;;;;;;3.58;1.10;;;;;;;26.53;30.23;99713.09;10381501;28;20179;-60
2023/07/04 07:44:08;;;;;;;2.92;1.08;;;;;;;27.06;29.72;99708.78;10381669;28;20411;-60
2023/07/04 07:49:11;;;;;;;2.55;1.30;;;;;;;27.20;29.06;99715.88;10381850;28;20120;-60
2023/07/04 07:54:14;;;;;;;3.00;1.30;;;;;;;27.16;28.66;99710.06;10381951;28;20103;-60
2023/07/04 07:59:17;;;;;;;1.65;1.08;;;;;;;27.15;28.32;99708.44;10386780;28;20046;-61
2023/07/04 08:04:19;;;;;;;1.85;0.95;;;;;;;27.16;27.80;99704.69;10392467;28;20085;-60
2023/07/04 08:09:21;;;;;;;3.33;1.20;;;;;;;27.72;27.51;99712.41;10391071;28;20063;-60
2023/07/04 08:14:24;;;;;;;2.10;1.33;;;;;;;27.46;27.38;99703.28;10389255;28;20072;-61
2023/07/04 08:19:26;;;;;;;4.88;1.38;;;;;;;27.67;27.14;99699.59;10389198;28;20085;-60
2023/07/04 08:24:28;;;;;;;3.30;1.58;;;;;;;27.48;26.62;99695.84;10391673;28;20049;-61
2023/07/04 08:29:30;;;;;;;2.60;1.20;;;;;;;27.75;26.47;99702.09;10392013;28;20053;-61
2023/07/04 08:34:32;;;;;;;2.60;1.20;;;;;;;27.89;26.19;99702.94;10390742;28;20046;-61
2023/07/04 08:39:34;;;;;;;2.88;1.48;;;;;;;28.11;25.91;99702.47;10391559;28;20158;-61
2023/07/04 08:44:43;;;;;;;2.40;1.33;;;;;;;27.76;25.30;99708.31;10390440;28;20053;-61
2023/07/04 08:50:04;;;;;;;3.47;1.70;;;;;;;27.35;26.14;99703.91;10392206;28;20081;-60
2023/07/04 08:55:12;;;;;;;3.25;1.30;;;;;;;27.80;25.75;99713.06;10390253;28;20053;-61
2023/07/04 09:00:39;;;;;;;4.10;1.25;;;;;;;27.94;25.04;99703.13;10392268;28;20119;-61
2023/07/04 09:06:11;;;;;;;2.88;1.50;;;;;;;27.97;24.24;99698.13;10388951;28;20073;-61
2023/07/04 09:11:16;;;;;;;3.40;1.52;;;;;;;27.58;25.37;99708.06;10375006;28;20045;-61
2023/07/04 09:16:27;;;;;;;3.17;1.45;;;;;;;27.38;24.87;99706.19;10391154;28;20119;-60
2023/07/04 09:21:30;;;;;;;2.95;1.50;;;;;;;27.66;25.48;99702.50;10389677;28;20481;-61
2023/07/04 09:26:49;;;;;;;2.85;1.50;;;;;;;28.00;23.95;99699.59;10389231;28;20477;-61
2023/07/04 09:31:55;;;;;;;3.97;1.58;;;;;;;28.27;24.78;99695.81;10387875;28;20042;-61
2023/07/04 09:37:00;;;;;;;3.92;1.63;;;;;;;28.08;24.37;99702.06;10389123;28;20053;-61
2023/07/04 09:42:05;;;;;;;3.15;1.60;;;;;;;27.90;24.23;99704.56;10388133;28;20057;-61
2023/07/04 09:47:26;;;;;;;3.17;1.67;;;;;;;27.54;24.51;99713.03;10390469;28;20055;-61
2023/07/04 09:52:29;;;;;;;4.55;2.00;;;;;;;27.85;24.89;99693.63;10386026;28;20103;-61
2023/07/04 09:57:32;;;;;;;3.17;1.85;;;;;;;27.96;24.34;99690.28;10389727;28;20053;-60
2023/07/04 10:02:35;;;;;;;3.03;1.70;;;;;;;27.99;24.92;99706.00;10388924;28;20171;-61
2023/07/04 10:07:37;;;;;;;3.00;1.38;;;;;;;27.76;24.83;99708.31;10388116;28;20081;-60
2023/07/04 10:12:45;;;;;;;4.10;2.20;;;;;;;27.46;25.22;99694.44;10387926;28;20115;-60
2023/07/04 10:17:47;;;;;;;2.72;1.60;;;;;;;27.60;25.04;99703.31;10354093;28;20102;-61
2023/07/04 10:22:52;;;;;;;3.78;1.70;;;;;;;27.11;24.92;99687.53;10380938;28;20059;-61
2023/07/04 10:28:02;;;;;;;4.80;1.77;;;;;;;27.32;24.58;99682.03;10386843;28;20063;-61
2023/07/04 10:33:14;;;;;;;3.47;1.60;;;;;;;27.31;24.65;99685.72;10385486;28;20045;-61
2023/07/04 10:38:45;;;;;;;3.85;1.60;;;;;;;27.55;24.31;99678.91;10385999;28;20059;-61
2023/07/04 10:43:54;;;;;;;4.00;1.63;;;;;;;27.40;24.28;99671.09;10381750;28;20420;-61
2023/07/04 10:49:04;;;;;;;3.30;1.90;;;;;;;27.10;24.04;99678.63;10385091;28;20065;-60
2023/07/04 10:54:11;;;;;;;4.63;1.92;;;;;;;26.67;24.95;99677.28;10386762;28;20156;-60
2023/07/04 10:59:18;;;;;;;2.83;1.70;;;;;;;26.57;25.38;99676.81;10384852;28;20046;-60
2023/07/04 11:04:41;;;;;;;3.92;1.65;;;;;;;26.63;24.34;99679.53;10385118;28;20156;-60
2023/07/04 11:09:43;;;;;;;5.22;1.95;;;;;;;26.47;24.48;99677.19;10400756;28;20152;-60
2023/07/04 11:14:47;;;;;;;3.00;1.70;;;;;;;26.48;25.03;99681.53;10385056;28;20063;-60
2023/07/04 11:20:15;;;;;;;4.20;1.83;;;;;;;26.48;24.53;99678.84;10385628;28;20085;-60
2023/07/04 11:25:35;;;;;;;5.70;1.70;;;;;;;26.55;24.35;99669.00;10386636;28;20049;-60
2023/07/04 11:30:40;;;;;;;3.15;1.80;;;;;;;26.70;24.97;99668.84;10364692;28;20057;-60
2023/07/04 11:35:42;;;;;;;3.90;2.10;;;;;;;26.97;24.97;99675.13;10370755;28;20052;-60
2023/07/04 11:40:49;;;;;;;4.22;1.90;;;;;;;26.82;24.00;99653.81;10383112;28;20057;-60
2023/07/04 11:45:55;;;;;;;3.88;1.85;;;;;;;26.61;24.28;99649.41;10382924;28;20049;-60
2023/07/04 11:51:05;;;;;;;4.28;2.00;;;;;;;26.47;23.81;99663.78;10378687;28;20073;-60
2023/07/04 11:56:19;;;;;;;3.88;2.00;;;;;;;26.51;23.41;99661.50;10375132;28;20168;-60
2023/07/04 12:01:21;;;;;;;4.55;2.35;;;;;;;26.45;24.31;99667.66;10367485;28;20632;-60
2023/07/04 12:06:49;;;;;;;4.80;2.22;;;;;;;26.47;23.35;99649.53;10366474;28;20096;-60
2023/07/04 12:11:51;;;;;;;3.85;1.98;;;;;;;26.43;24.19;99653.63;10378946;28;20724;-60
2023/07/04 12:16:57;;;;;;;4.60;2.05;;;;;;;26.46;23.97;99645.22;10366356;28;20061;-60
2023/07/04 12:21:59;;;;;;;4.20;2.10;;;;;;;26.71;23.97;99630.25;10398095;28;20133;-60
2023/07/04 12:27:01;;;;;;;4.20;2.20;;;;;;;26.92;24.15;99630.09;10383220;28;20148;-60
2023/07/04 12:32:07;;;;;;;4.43;2.00;;;;;;;26.85;24.00;99623.91;10381990;28;20156;-60
2023/07/04 12:37:16;;;;;;;4.80;2.28;;;;;;;26.88;24.10;99614.59;10379718;28;20159;-60
2023/07/04 12:42:27;;;;;;;4.97;2.22;;;;;;;26.92;23.42;99622.03;10361885;28;20041;-60
2023/07/04 12:47:35;;;;;;;5.05;2.13;;;;;;;27.11;23.02;99625.78;10386981;28;20037;-61
2023/07/04 12:52:40;;;;;;;6.13;2.80;;;;;;;27.15;22.98;99610.94;10385444;28;20180;-60
2023/07/04 12:57:42;;;;;;;6.00;2.42;;;;;;;27.33;23.00;99609.31;10379172;28;20061;-60
2023/07/04 13:02:47;;;;;;;5.40;2.40;;;;;;;27.23;23.58;99606.22;10384164;28;20172;-60
2023/07/04 13:07:50;;;;;;;5.72;2.50;;;;;;;27.20;23.80;99609.28;10389192;28;20111;-60
2023/07/04 13:12:53;;;;;;;4.35;2.20;;;;;;;27.05;23.70;99599.75;10384501;28;20478;-60
2023/07/04 13:18:04;;;;;;;5.95;2.35;;;;;;;27.15;23.02;99606.41;10380274;28;20064;-60
2023/07/04 13:23:37;;;;;;;4.57;2.15;;;;;;;26.85;22.89;99596.22;10386008;28;20080;-61
2023/07/04 13:28:49;;;;;;;4.55;2.30;;;;;;;27.27;23.55;99595.88;10375867;28;20399;-60
2023/07/04 13:33:55;;;;;;;4.47;2.28;;;;;;;27.59;23.04;99597.69;10384938;28;20121;-60
2023/07/04 13:38:57;;;;;;;6.18;2.50;;;;;;;27.58;23.02;99603.28;10380378;28;20059;-60
2023/07/04 13:44:02;;;;;;;4.68;2.17;;;;;;;27.91;23.06;99582.59;10380842;28;20052;-60
2023/07/04 13:49:08;;;;;;;5.38;2.40;;;;;;;27.85;23.19;99575.38;10383068;28;20041;-60
2023/07/04 13:54:10;;;;;;;5.15;2.30;;;;;;;27.89;23.03;99572.03;10385176;28;20052;-60
2023/07/04 13:59:12;;;;;;;4.28;2.33;;;;;;;27.90;22.95;99567.47;10364802;28;20520;-61
2023/07/04 14:04:14;;;;;;;3.72;1.90;;;;;;;27.73;23.12;99560.94;10383748;28;20055;-60
2023/07/04 14:09:20;;;;;;;5.03;2.28;;;;;;;27.70;23.09;99561.31;10382897;28;20052;-61
2023/07/04 14:14:22;;;;;;;4.85;2.22;;;;;;;27.68;22.73;99558.00;10384913;28;20482;-60
2023/07/04 14:19:27;;;;;;;4.65;2.17;;;;;;;27.52;22.74;99563.81;10380440;28;20063;-60
2023/07/04 14:24:32;;;;;;;3.97;1.70;;;;;;;27.79;22.42;99543.97;10382111;28;20051;-61
2023/07/04 14:29:34;;;;;;;5.72;2.17;;;;;;;27.60;22.08;99553.69;10381760;28;20607;-60
2023/07/04 14:34:37;;;;;;;4.28;2.15;;;;;;;27.92;22.22;99550.09;10385253;28;20064;-61
2023/07/04 14:39:39;;;;;;;4.80;2.20;;;;;;;27.89;22.40;99545.16;10380837;28;20866;-60
2023/07/04 14:44:44;;;;;;;3.67;2.03;;;;;;;27.90;22.70;99545.97;10382388;28;21057;-60
2023/07/04 14:49:46;;;;;;;5.55;2.38;;;;;;;27.97;22.70;99531.47;10381675;28;20053;-61
2023/07/04 14:54:48;;;;;;;4.80;2.20;;;;;;;27.65;22.87;99523.50;10383242;28;20516;-60
2023/07/04 14:59:51;;;;;;;4.75;2.30;;;;;;;27.77;23.02;99524.53;10380467;28;20597;-61
2023/07/04 15:04:53;;;;;;;3.75;2.03;;;;;;;27.54;23.07;99527.66;10351153;28;20052;-61
2023/07/04 15:09:56;;;;;;;3.40;1.83;;;;;;;27.51;22.90;99520.03;10380714;28;20060;-61
2023/07/04 15:14:58;;;;;;;4.28;2.20;;;;;;;27.47;22.79;99511.56;10383017;28;20062;-60
2023/07/04 15:20:00;;;;;;;4.57;2.17;;;;;;;27.51;23.04;99511.97;10376987;28;20049;-60
2023/07/04 15:25:02;;;;;;;5.35;2.15;;;;;;;27.39;22.94;99506.41;10379999;28;20072;-61
2023/07/04 15:30:05;;;;;;;3.40;1.83;;;;;;;27.34;23.05;99508.09;10364251;28;20444;-61
2023/07/04 15:35:07;;;;;;;5.72;2.50;;;;;;;27.30;22.98;99501.50;10382525;28;20045;-60
2023/07/04 15:40:10;;;;;;;4.22;2.17;;;;;;;27.18;22.88;99495.91;10377069;28;20055;-60
2023/07/04 15:45:12;;;;;;;5.82;2.20;;;;;;;27.35;22.95;99491.75;10381561;28;20053;-61
2023/07/04 15:50:15;;;;;;;7.03;2.30;;;;;;;27.59;22.71;99482.19;10368305;28;20048;-61
2023/07/04 15:55:17;;;;;;;4.57;2.00;;;;;;;27.54;23.13;99470.44;10381268;28;20623;-60
2023/07/04 16:00:19;;;;;;;5.20;2.35;;;;;;;27.22;23.03;99464.13;10361676;28;20056;-60
2023/07/04 16:05:22;;;;;;;4.75;2.10;;;;;;;27.52;23.15;99460.69;10381577;28;20049;-60
2023/07/04 16:10:24;;;;;;;3.65;1.73;;;;;;;27.46;23.10;99458.88;10379500;28;20047;-60
2023/07/04 16:15:26;;;;;;;4.22;2.10;;;;;;;27.24;23.33;99462.84;10376820;28;20050;-60
2023/07/04 16:20:28;;;;;;;3.97;2.03;;;;;;;27.39;23.15;99458.06;10365532;28;20049;-60
2023/07/04 16:25:31;;;;;;;4.32;1.85;;;;;;;27.28;23.41;99445.28;10384420;28;20037;-61
2023/07/04 16:30:33;;;;;;;5.15;1.70;;;;;;;27.23;23.46;99450.47;10385901;28;20048;-61
2023/07/04 16:35:36;;;;;;;4.40;2.10;;;;;;;27.09;23.28;99454.19;10384821;28;20041;-60
2023/07/04 16:40:39;;;;;;;3.55;1.90;;;;;;;27.11;23.62;99449.44;10384331;28;20049;-61
2023/07/04 16:45:41;;;;;;;4.60;1.98;;;;;;;27.09;23.28;99446.13;10388970;28;20417;-61
2023/07/04 16:50:43;;;;;;;4.68;2.05;;;;;;;27.12;23.71;99439.50;10385208;28;20049;-60
2023/07/04 16:55:45;;;;;;;4.10;1.90;;;;;;;26.95;23.78;99432.94;10387883;28;20545;-60
2023/07/04 17:00:47;;;;;;;4.03;1.88;;;;;;;26.84;23.88;99426.34;10370068;28;20128;-61
2023/07/04 17:05:52;;;;;;;4.50;2.00;;;;;;;26.63;23.98;99435.44;10386093;28;20931;-60
2023/07/04 17:10:55;;;;;;;3.95;1.85;;;;;;;26.52;24.35;99427.16;10381267;28;20464;-60
2023/07/04 17:15:57;;;;;;;4.25;1.80;;;;;;;26.54;24.15;99427.78;10383760;28;20449;-62
2023/07/04 17:20:59;;;;;;;4.40;1.85;;;;;;;26.49;24.75;99425.69;10381172;28;20275;-61
2023/07/04 17:26:02;;;;;;;4.22;2.03;;;;;;;26.42;24.67;99422.22;10381466;28;20049;-61
2023/07/04 17:31:06;;;;;;;2.97;1.70;;;;;;;26.38;24.58;99420.13;10377743;28;20057;-61
2023/07/04 17:36:12;;;;;;;4.60;1.63;;;;;;;26.32;24.44;99424.44;10384032;28;20059;-61
2023/07/04 17:41:16;;;;;;;2.50;1.40;;;;;;;26.27;24.40;99421.56;10399167;28;20045;-61
2023/07/04 17:46:19;;;;;;;3.03;1.70;;;;;;;26.33;24.82;99414.56;10381075;28;20494;-61
2023/07/04 17:51:24;;;;;;;4.03;1.67;;;;;;;26.32;24.84;99410.22;10384893;28;20043;-61
2023/07/04 17:56:26;;;;;;;5.18;1.50;;;;;;;26.15;24.73;99399.06;10366000;28;20076;-61
2023/07/04 18:01:28;;;;;;;4.38;1.65;;;;;;;26.05;24.80;99392.47;10384584;28;20061;-61
2023/07/04 18:06:31;;;;;;;3.35;1.50;;;;;;;25.83;25.02;99395.25;10381783;28;20134;-61
2023/07/04 18:11:33;;;;;;;3.28;1.70;;;;;;;25.46;25.73;99377.03;10381263;28;20056;-62
2023/07/04 18:16:35;;;;;;;3.55;1.77;;;;;;;25.12;26.43;99374.38;10373412;28;20175;-61
2023/07/04 18:21:37;;;;;;;3.17;1.48;;;;;;;25.14;26.53;99366.97;10375147;28;20996;-61
2023/07/04 18:26:39;;;;;;;3.53;1.77;;;;;;;25.17;26.58;99373.75;10375321;28;20049;-60
2023/07/04 18:31:41;;;;;;;3.42;1.70;;;;;;;25.11;27.17;99372.72;10368327;28;20053;-61
2023/07/04 18:36:44;;;;;;;4.55;1.70;;;;;;;25.14;27.43;99377.69;10385490;28;20057;-61
2023/07/04 18:41:46;;;;;;;3.03;1.50;;;;;;;25.06;28.25;99375.97;10386191;28;20061;-60
2023/07/04 18:46:48;;;;;;;3.05;1.70;;;;;;;24.92;28.97;99378.75;10383078;28;20498;-61
2023/07/04 18:51:50;;;;;;;3.03;1.58;;;;;;;24.74;29.75;99365.06;10378151;28;20091;-61
2023/07/04 18:56:53;;;;;;;4.18;1.98;;;;;;;24.63;30.05;99368.28;10383367;28;20142;-61
2023/07/04 19:01:55;;;;;;;3.03;1.63;;;;;;;24.54;30.14;99361.41;10381067;28;20046;-59
2023/07/04 19:06:57;;;;;;;2.92;1.40;;;;;;;24.25;30.62;99359.72;10384973;28;20808;-59
2023/07/04 19:11:59;;;;;;;3.00;1.38;;;;;;;24.04;31.16;99354.41;10384819;28;21022;-59
2023/07/04 19:17:01;;;;;;;4.10;1.70;;;;;;;23.55;32.03;99358.81;10382789;28;20061;-59
2023/07/04 19:22:07;;;;;;;4.90;1.80;;;;;;;23.04;32.54;99360.59;10380766;28;20045;-59
2023/07/04 19:27:14;;;;;;;2.42;1.52;;;;;;;22.97;32.56;99365.00;10375860;28;20058;-59
2023/07/04 19:32:16;;;;;;;3.42;1.60;;;;;;;22.87;32.39;99361.78;10362941;28;20553;-59
2023/07/04 19:37:18;;;;;;;3.20;1.70;;;;;;;22.36;33.43;99364.28;10381397;28;20651;-59
2023/07/04 19:42:20;;;;;;;4.95;1.85;;;;;;;21.89;34.54;99366.28;10382890;28;20051;-59
2023/07/04 19:47:26;;;;;;;3.00;1.60;;;;;;;21.69;34.49;99359.75;10385843;28;20068;-59
2023/07/04 19:52:28;;;;;;;4.07;1.60;;;;;;;21.85;34.19;99357.00;10384025;28;20068;-59
2023/07/04 19:57:30;;;;;;;3.97;1.88;;;;;;;21.94;34.18;99358.59;10393162;28;20513;-59
2023/07/04 20:02:32;;;;;;;7.45;2.60;;;;;;;21.73;34.64;99361.06;10392514;28;20046;-59
2023/07/04 20:07:34;;;;;;;4.50;2.05;;;;;;;22.07;34.97;99358.84;10393321;28;20077;-59
2023/07/04 20:12:36;;;;;;;5.75;1.70;;;;;;;22.16;35.25;99365.78;10374112;28;20153;-59
2023/07/04 20:17:38;;;;;;;3.50;1.75;;;;;;;22.23;35.83;99363.25;10392244;28;20139;-59
2023/07/04 20:22:41;;;;;;;3.75;1.77;;;;;;;22.16;36.44;99380.94;10391679;28;20046;-59
2023/07/04 20:27:43;;;;;;;3.83;1.80;;;;;;;22.07;36.57;99390.81;10390665;28;20140;-59
2023/07/04 20:32:45;;;;;;;4.95;2.13;;;;;;;22.03;35.99;99393.97;10388562;28;20152;-58
2023/07/04 20:37:47;;;;;;;5.00;2.03;;;;;;;22.15;37.34;99400.59;10384899;28;20045;-58
2023/07/04 20:42:49;;;;;;;4.57;1.60;;;;;;;22.08;38.86;99387.16;10386874;28;20041;-58
2023/07/04 20:47:53;;;;;;;3.70;1.70;;;;;;;21.98;39.87;99383.88;10388508;28;20080;-58
2023/07/04 20:52:55;;;;;;;3.25;1.60;;;;;;;21.96;40.12;99382.38;10384616;28;20413;-58
2023/07/04 20:57:57;;;;;;;3.45;1.83;;;;;;;21.77;40.45;99373.03;10379794;28;20060;-58
2023/07/04 21:02:59;;;;;;;4.05;1.70;;;;;;;21.73;40.36;99369.06;10396926;28;20124;-58
2023/07/04 21:08:02;;;;;;;4.65;1.88;;;;;;;21.75;40.34;99361.72;10384572;28;20382;-58
2023/07/04 21:13:28;;;;;;;3.97;1.70;;;;;;;21.66;41.28;99363.59;10381737;28;20080;-58
2023/07/04 21:18:29;;;;;;;3.70;1.70;;;;;;;21.52;41.45;99363.50;10375879;28;20057;-58
2023/07/04 21:23:35;;;;;;;4.70;1.48;;;;;;;21.39;42.48;99360.63;10377665;28;20086;-58
2023/07/04 21:28:37;;;;;;;5.35;1.90;;;;;;;21.26;42.25;99354.97;10386061;28;20600;-57
2023/07/04 21:33:40;;;;;;;4.25;1.70;;;;;;;21.02;42.46;99346.13;10387308;28;20136;-58
2023/07/04 21:38:43;;;;;;;3.50;1.75;;;;;;;20.98;42.61;99342.16;10385636;28;20065;-58
2023/07/04 21:43:45;;;;;;;3.58;1.73;;;;;;;21.00;43.04;99340.16;10388433;28;20140;-58
2023/07/04 21:48:49;;;;;;;3.97;2.03;;;;;;;20.81;43.43;99345.00;10387371;28;20138;-58
2023/07/04 21:53:51;;;;;;;4.90;1.77;;;;;;;20.66;43.72;99333.44;10387854;28;20160;-58
2023/07/04 21:58:53;;;;;;;3.58;1.63;;;;;;;20.34;44.17;99323.66;10402414;28;20593;-58
2023/07/04 22:03:55;;;;;;;3.47;1.60;;;;;;;20.10;44.65;99321.03;10387451;28;20052;-58
2023/07/04 22:08:57;;;;;;;6.13;2.00;;;;;;;20.05;44.90;99323.38;10384888;28;20046;-58
2023/07/04 22:14:00;;;;;;;5.05;1.73;;;;;;;20.05;45.26;99316.22;10402643;28;20049;-58
2023/07/04 22:19:02;;;;;;;4.18;1.80;;;;;;;20.00;45.28;99310.59;10386641;28;20071;-58
2023/07/04 22:24:04;;;;;;;2.72;1.63;;;;;;;19.98;45.35;99309.09;10386161;28;20049;-59
2023/07/04 22:29:06;;;;;;;2.85;1.42;;;;;;;20.20;45.16;99303.09;10386247;28;21098;-58
2023/07/04 22:34:08;;;;;;;4.55;1.75;;;;;;;20.28;45.22;99297.78;10384960;28;20041;-58
2023/07/04 22:39:10;;;;;;;3.88;1.63;;;;;;;20.23;45.57;99298.28;10384219;28;20052;-58
2023/07/04 22:44:12;;;;;;;3.65;1.73;;;;;;;20.28;45.66;99295.13;10384475;28;20064;-58
2023/07/04 22:49:14;;;;;;;3.63;1.95;;;;;;;20.28;45.89;99287.16;10384328;28;20045;-58
2023/07/04 22:54:16;;;;;;;4.07;1.58;;;;;;;20.20;45.54;99273.91;10386754;28;20099;-58
2023/07/04 22:59:18;;;;;;;3.08;1.80;;;;;;;20.22;45.70;99277.22;10382979;28;20049;-59
2023/07/04 23:04:20;;;;;;;3.45;1.83;;;;;;;19.95;46.34;99265.13;10382427;28;20043;-58
2023/07/04 23:09:22;;;;;;;2.53;1.50;;;;;;;20.03;46.35;99277.59;10384893;28;20045;-58
2023/07/04 23:14:24;;;;;;;3.72;1.65;;;;;;;20.02;46.70;99278.56;10382360;28;20045;-58
2023/07/04 23:19:26;;;;;;;4.15;1.60;;;;;;;19.88;47.45;99273.94;10401063;28;20060;-58
2023/07/04 23:24:28;;;;;;;3.63;2.10;;;;;;;19.89;47.37;99280.88;10383022;28;20132;-58
2023/07/04 23:29:30;;;;;;;3.00;1.60;;;;;;;19.95;47.40;99278.41;10384520;28;20897;-58
2023/07/04 23:34:32;;;;;;;4.35;1.98;;;;;;;19.90;49.08;99278.09;10381782;28;20049;-58